createdAt,value
2018-12-16T00:01:45.964Z,12.63
2018-12-16T00:04:14.471Z,12.15
2018-12-16T00:06:42.984Z,13.55
2018-12-16T00:09:11.469Z,12.03
2018-12-16T00:11:39.995Z,12.70
2018-12-16T00:14:08.506Z,12.75
2018-12-16T00:16:37.008Z,12.93
2018-12-16T00:19:05.607Z,12.95
2018-12-16T00:21:34.114Z,13.30
2018-12-16T00:24:02.632Z,13.18
2018-12-16T00:26:41.107Z,14.28
2018-12-16T00:29:09.602Z,13.78
2018-12-16T00:31:38.136Z,13.30
2018-12-16T00:34:06.641Z,15.45
2018-12-16T00:36:35.166Z,14.75
2018-12-16T00:39:04.828Z,15.30
2018-12-16T00:41:33.353Z,14.40
2018-12-16T00:44:01.896Z,15.30
2018-12-16T00:46:30.396Z,14.80
2018-12-16T00:48:58.932Z,13.83
2018-12-16T00:51:27.454Z,15.28
2018-12-16T00:53:55.997Z,14.95
2018-12-16T00:56:24.521Z,14.55
2018-12-16T00:58:53.037Z,15.70
2018-12-16T01:01:21.572Z,15.18
2018-12-16T01:03:50.107Z,14.95
2018-12-16T01:06:18.700Z,15.25
2018-12-16T01:08:47.245Z,15.72
2018-12-16T01:11:15.754Z,15.75
2018-12-16T01:13:44.268Z,14.93
2018-12-16T01:16:12.786Z,15.83
2018-12-16T01:18:41.316Z,14.70
2018-12-16T01:21:09.856Z,16.05
2018-12-16T01:23:38.344Z,15.58
2018-12-16T01:26:06.854Z,15.45
2018-12-16T01:28:35.370Z,16.73
2018-12-16T01:31:03.928Z,16.02
2018-12-16T01:33:32.440Z,15.65
2018-12-16T01:36:00.936Z,17.10
2018-12-16T01:38:29.534Z,16.50
2018-12-16T01:40:58.072Z,16.50
2018-12-16T01:43:26.599Z,17.05
2018-12-16T01:45:55.112Z,15.83
2018-12-16T01:48:23.650Z,15.32
2018-12-16T01:50:52.163Z,16.40
2018-12-16T01:53:20.699Z,15.65
2018-12-16T01:55:49.226Z,15.95
2018-12-16T01:58:17.844Z,14.73
2018-12-16T02:00:46.359Z,15.93
2018-12-16T02:03:14.867Z,15.75
2018-12-16T02:05:43.517Z,16.17
2018-12-16T02:08:12.047Z,16.35
2018-12-16T02:10:40.560Z,15.75
2018-12-16T02:13:09.088Z,15.05
2018-12-16T02:15:37.617Z,14.98
2018-12-16T02:18:06.096Z,16.57
2018-12-16T02:20:34.620Z,16.25
2018-12-16T02:23:03.136Z,14.95
2018-12-16T02:25:31.648Z,15.93
2018-12-16T02:28:00.137Z,15.63
2018-12-16T02:30:28.713Z,15.53
2018-12-16T02:32:57.637Z,16.32
2018-12-16T02:35:26.145Z,17.00
2018-12-16T02:37:54.677Z,15.48
2018-12-16T02:40:23.240Z,15.78
2018-12-16T02:42:51.750Z,15.23
2018-12-16T02:45:20.288Z,14.58
2018-12-16T02:47:49.587Z,15.23
2018-12-16T02:50:18.312Z,16.20
2018-12-16T02:52:46.834Z,16.25
2018-12-16T02:55:15.359Z,16.85
2018-12-16T02:57:43.992Z,16.00
2018-12-16T03:00:12.736Z,16.35
2018-12-16T03:02:41.247Z,16.80
2018-12-16T03:05:09.784Z,16.70
2018-12-16T03:07:38.398Z,17.42
2018-12-16T03:10:07.205Z,17.60
2018-12-16T03:12:35.865Z,16.73
2018-12-16T03:15:04.948Z,17.45
2018-12-16T03:17:33.468Z,16.93
2018-12-16T03:20:01.982Z,16.02
2018-12-16T03:22:30.499Z,15.98
2018-12-16T03:24:59.015Z,16.55
2018-12-16T03:27:27.504Z,16.85
2018-12-16T03:29:56.045Z,18.30
2018-12-16T03:32:24.564Z,17.05
2018-12-16T03:34:53.122Z,17.70
2018-12-16T03:37:21.628Z,18.42
2018-12-16T03:39:50.133Z,17.37
2018-12-16T03:42:18.623Z,16.77
2018-12-16T03:44:47.139Z,16.48
2018-12-16T03:47:15.651Z,16.42
2018-12-16T03:49:44.158Z,15.63
2018-12-16T03:52:12.647Z,16.52
2018-12-16T03:54:41.163Z,16.75
2018-12-16T03:57:09.674Z,17.00
2018-12-16T03:59:38.173Z,15.72
2018-12-16T04:02:06.702Z,17.45
2018-12-16T04:04:35.210Z,15.98
2018-12-16T04:07:03.737Z,15.45
2018-12-16T04:09:32.258Z,16.42
2018-12-16T04:12:00.774Z,15.70
2018-12-16T04:14:29.270Z,16.48
2018-12-16T04:16:57.790Z,17.60
2018-12-16T04:19:26.279Z,16.75
2018-12-16T04:21:54.807Z,16.17
2018-12-16T04:24:23.509Z,16.12
2018-12-16T04:26:52.058Z,15.68
2018-12-16T04:29:20.581Z,15.93
2018-12-16T04:31:49.147Z,16.90
2018-12-16T04:34:17.660Z,16.67
2018-12-16T04:36:46.161Z,15.72
2018-12-16T04:39:14.637Z,16.05
2018-12-16T04:41:43.135Z,15.90
2018-12-16T04:44:11.649Z,16.40
2018-12-16T04:46:40.169Z,15.20
2018-12-16T04:49:08.695Z,14.43
2018-12-16T04:51:37.585Z,15.00
2018-12-16T04:54:06.080Z,16.73
2018-12-16T04:56:34.606Z,16.42
2018-12-16T04:59:03.129Z,14.83
2018-12-16T05:01:31.645Z,16.12
2018-12-16T05:04:00.184Z,15.15
2018-12-16T05:06:28.689Z,14.75
2018-12-16T05:08:57.224Z,14.73
2018-12-16T05:11:25.764Z,15.30
2018-12-16T05:13:54.302Z,15.13
2018-12-16T05:16:22.833Z,15.55
2018-12-16T05:18:51.339Z,15.55
2018-12-16T05:21:19.846Z,15.43
2018-12-16T05:23:48.409Z,16.32
2018-12-16T05:26:16.871Z,15.70
2018-12-16T05:28:45.382Z,16.87
2018-12-16T05:31:13.916Z,16.95
2018-12-16T05:33:42.421Z,16.05
2018-12-16T05:36:10.959Z,16.23
2018-12-16T05:38:39.429Z,16.57
2018-12-16T05:41:07.956Z,16.60
2018-12-16T05:43:36.494Z,16.00
2018-12-16T05:46:05.250Z,14.83
2018-12-16T05:48:33.766Z,16.10
2018-12-16T05:51:02.287Z,15.40
2018-12-16T05:53:30.826Z,17.40
2018-12-16T05:55:59.331Z,16.73
2018-12-16T05:58:27.881Z,17.57
2018-12-16T06:00:56.378Z,16.97
2018-12-16T06:03:24.883Z,16.77
2018-12-16T06:05:53.413Z,18.48
2018-12-16T06:08:21.927Z,17.25
2018-12-16T06:10:50.416Z,16.85
2018-12-16T06:13:18.910Z,17.87
2018-12-16T06:15:47.417Z,18.25
2018-12-16T06:18:16.051Z,16.97
2018-12-16T06:20:44.572Z,18.37
2018-12-16T06:23:13.086Z,17.25
2018-12-16T06:25:42.056Z,16.77
2018-12-16T06:28:10.581Z,13.95
2018-12-16T06:30:39.552Z,13.32
2018-12-16T06:33:08.048Z,14.83
2018-12-16T06:35:36.765Z,14.85
2018-12-16T06:38:05.268Z,17.07
2018-12-16T06:40:33.779Z,15.78
2018-12-16T06:43:02.296Z,15.00
2018-12-16T06:45:30.864Z,16.67
2018-12-16T06:47:59.377Z,17.95
2018-12-16T06:50:27.923Z,16.82
2018-12-16T06:52:56.486Z,17.70
2018-12-16T06:55:25.002Z,17.95
2018-12-16T06:57:53.523Z,18.15
2018-12-16T07:00:22.102Z,21.33
2018-12-16T07:02:54.210Z,19.32
2018-12-16T07:05:23.005Z,17.62
2018-12-16T07:07:51.540Z,18.30
2018-12-16T07:10:20.218Z,17.35
2018-12-16T07:12:48.735Z,19.40
2018-12-16T07:15:17.274Z,15.80
2018-12-16T07:17:45.774Z,14.63
2018-12-16T07:20:14.302Z,16.30
2018-12-16T07:22:42.844Z,16.02
2018-12-16T07:25:11.390Z,16.75
2018-12-16T07:27:39.913Z,14.90
2018-12-16T07:30:09.080Z,14.95
2018-12-16T07:32:37.601Z,15.93
2018-12-16T07:35:06.448Z,14.23
2018-12-16T07:37:35.100Z,13.58
2018-12-16T07:40:04.111Z,11.60
2018-12-16T07:42:32.615Z,12.93
2018-12-16T07:45:01.240Z,13.58
2018-12-16T07:47:29.866Z,13.32
2018-12-16T07:49:58.466Z,12.43
2018-12-16T07:52:27.008Z,14.58
2018-12-16T07:54:55.553Z,12.95
2018-12-16T07:57:24.155Z,13.70
2018-12-16T07:59:52.864Z,12.10
2018-12-16T08:02:21.399Z,11.88
2018-12-16T08:04:49.974Z,12.50
2018-12-16T08:07:18.591Z,13.05
2018-12-16T08:09:47.158Z,13.43
2018-12-16T08:12:15.703Z,13.65
2018-12-16T08:14:46.436Z,13.60
2018-12-16T08:17:14.979Z,12.80
2018-12-16T08:19:43.506Z,14.35
2018-12-16T08:22:12.059Z,14.73
2018-12-16T08:24:40.616Z,13.00
2018-12-16T08:27:09.159Z,13.80
2018-12-16T08:29:37.809Z,13.55
2018-12-16T08:32:06.350Z,12.15
2018-12-16T08:34:34.876Z,12.93
2018-12-16T08:37:03.758Z,13.10
2018-12-16T08:39:32.289Z,12.80
2018-12-16T08:42:00.830Z,13.48
2018-12-16T08:44:29.365Z,13.32
2018-12-16T08:46:57.884Z,14.03
2018-12-16T08:49:26.450Z,14.03
2018-12-16T08:51:54.989Z,13.58
2018-12-16T08:54:29.920Z,15.23
2018-12-16T08:56:54.133Z,13.05
2018-12-16T08:59:22.645Z,19.65
2018-12-16T09:01:51.225Z,13.98
2018-12-16T09:04:19.757Z,16.15
2018-12-16T09:06:48.337Z,31.33
2018-12-16T09:09:16.871Z,16.10
2018-12-16T09:11:45.401Z,15.28
2018-12-16T09:14:15.970Z,15.83
2018-12-16T09:16:44.562Z,13.98
2018-12-16T09:19:13.091Z,14.75
2018-12-16T09:21:41.629Z,16.07
2018-12-16T09:24:10.266Z,14.03
2018-12-16T09:26:38.814Z,13.93
2018-12-16T09:29:07.463Z,15.30
2018-12-16T09:31:36.052Z,14.78
2018-12-16T09:34:04.778Z,14.40
2018-12-16T09:36:33.901Z,14.70
2018-12-16T09:39:02.533Z,15.50
2018-12-16T09:41:31.132Z,13.75
2018-12-16T09:43:59.643Z,13.75
2018-12-16T09:46:28.171Z,13.30
2018-12-16T09:48:56.710Z,16.37
2018-12-16T09:51:25.268Z,13.93
2018-12-16T09:53:53.796Z,12.95
2018-12-16T09:56:22.499Z,12.85
2018-12-16T09:58:51.267Z,12.37
2018-12-16T10:01:19.881Z,12.43
2018-12-16T10:03:48.425Z,13.30
2018-12-16T10:06:16.981Z,13.98
2018-12-16T10:08:45.516Z,15.20
2018-12-16T10:11:20.054Z,12.60
2018-12-16T10:13:48.675Z,14.03
2018-12-16T10:16:17.899Z,11.97
2018-12-16T10:18:46.445Z,12.50
2018-12-16T10:21:14.961Z,13.13
2018-12-16T10:23:43.478Z,11.45
2018-12-16T10:26:11.999Z,11.57
2018-12-16T10:28:40.584Z,11.00
2018-12-16T10:31:09.180Z,11.10
2018-12-16T10:33:37.705Z,11.93
2018-12-16T10:36:06.380Z,13.10
2018-12-16T10:38:34.940Z,12.63
2018-12-16T10:41:03.462Z,12.88
2018-12-16T10:43:31.979Z,12.95
2018-12-16T10:46:00.524Z,14.43
2018-12-16T10:48:29.059Z,11.78
2018-12-16T10:50:57.632Z,12.78
2018-12-16T10:53:26.161Z,12.58
2018-12-16T10:55:54.710Z,12.98
2018-12-16T10:58:23.279Z,12.60
2018-12-16T11:00:57.213Z,13.25
2018-12-16T11:03:25.759Z,14.33
2018-12-16T11:05:54.313Z,12.85
2018-12-16T11:08:22.875Z,12.55
2018-12-16T11:10:51.433Z,13.65
2018-12-16T11:13:19.956Z,16.55
2018-12-16T11:15:48.760Z,15.58
2018-12-16T11:18:17.294Z,14.15
2018-12-16T11:20:45.834Z,13.98
2018-12-16T11:23:14.360Z,14.98
2018-12-16T11:25:48.183Z,13.58
2018-12-16T11:28:16.718Z,13.43
2018-12-16T11:30:50.185Z,12.18
2018-12-16T11:33:23.093Z,13.53
2018-12-16T11:35:51.755Z,15.13
2018-12-16T11:38:20.284Z,14.80
2018-12-16T11:40:48.878Z,14.45
2018-12-16T11:43:17.400Z,13.15
2018-12-16T11:45:47.722Z,13.53
2018-12-16T11:48:16.270Z,12.30
2018-12-16T11:50:44.806Z,13.93
2018-12-16T11:53:16.059Z,13.18
2018-12-16T11:55:47.240Z,14.05
2018-12-16T11:58:15.790Z,12.98
2018-12-16T12:00:44.367Z,15.25
2018-12-16T12:03:12.891Z,13.08
2018-12-16T12:05:41.390Z,18.87
2018-12-16T12:08:09.907Z,14.33
2018-12-16T12:10:38.498Z,18.75
2018-12-16T12:13:07.111Z,14.23
2018-12-16T12:15:36.190Z,13.68
2018-12-16T12:18:04.769Z,32.63
2018-12-16T12:20:33.424Z,19.05
2018-12-16T12:23:01.936Z,81.15
2018-12-16T12:25:31.429Z,29.55
2018-12-16T12:28:00.398Z,13.83
2018-12-16T12:30:29.001Z,14.35
2018-12-16T12:32:57.523Z,14.20
2018-12-16T12:35:26.073Z,14.50
2018-12-16T12:37:54.642Z,14.75
2018-12-16T12:40:23.273Z,14.75
2018-12-16T12:42:53.006Z,16.32
2018-12-16T12:45:21.550Z,15.55
2018-12-16T12:47:50.101Z,16.23
2018-12-16T12:50:18.793Z,14.73
2018-12-16T12:52:47.338Z,18.50
2018-12-16T12:55:16.055Z,17.48
2018-12-16T12:57:44.712Z,26.27
2018-12-16T13:00:14.997Z,17.30
2018-12-16T13:02:43.590Z,16.32
2018-12-16T13:05:12.154Z,16.62
2018-12-16T13:07:40.783Z,19.20
2018-12-16T13:10:12.019Z,16.93
2018-12-16T13:12:40.629Z,19.02
2018-12-16T13:15:09.421Z,17.12
2018-12-16T13:17:37.971Z,17.82
2018-12-16T13:20:07.635Z,15.78
2018-12-16T13:22:36.284Z,14.98
2018-12-16T13:25:15.937Z,14.87
2018-12-16T13:27:44.473Z,16.02
2018-12-16T13:30:13.052Z,15.20
2018-12-16T13:32:41.674Z,15.72
2018-12-16T13:35:10.249Z,16.32
2018-12-16T13:37:38.815Z,14.87
2018-12-16T13:40:08.497Z,14.60
2018-12-16T13:42:37.112Z,15.15
2018-12-16T13:45:07.113Z,15.20
2018-12-16T13:47:35.696Z,16.00
2018-12-16T13:50:05.040Z,15.25
2018-12-16T13:52:33.574Z,15.20
2018-12-16T13:55:02.103Z,14.90
2018-12-16T13:57:32.178Z,14.18
2018-12-16T14:00:00.694Z,15.50
2018-12-16T14:02:29.194Z,15.63
2018-12-16T14:04:57.712Z,16.42
2018-12-16T14:07:26.334Z,16.45
2018-12-16T14:09:54.989Z,16.23
2018-12-16T14:12:24.983Z,16.42
2018-12-16T14:14:53.537Z,17.27
2018-12-16T14:17:22.146Z,15.98
2018-12-16T14:19:50.671Z,16.75
2018-12-16T14:22:19.163Z,16.27
2018-12-16T14:24:47.693Z,15.68
2018-12-16T14:27:16.220Z,15.25
2018-12-16T14:29:44.749Z,15.65
2018-12-16T14:32:14.112Z,16.35
2018-12-16T14:34:42.766Z,16.62
2018-12-16T14:37:11.291Z,16.00
2018-12-16T14:39:40.053Z,27.82
2018-12-16T14:42:08.697Z,22.48
2018-12-16T14:44:37.213Z,23.27
2018-12-16T14:47:05.786Z,19.65
2018-12-16T14:49:34.312Z,20.40
2018-12-16T14:52:02.891Z,21.77
2018-12-16T14:54:31.501Z,17.85
2018-12-16T14:57:00.032Z,17.32
2018-12-16T14:59:28.662Z,17.07
2018-12-16T15:01:57.408Z,19.45
2018-12-16T15:04:26.109Z,24.37
2018-12-16T15:06:54.715Z,19.50
2018-12-16T15:09:23.231Z,25.62
2018-12-16T15:11:51.796Z,24.18
2018-12-16T15:14:20.387Z,19.17
2018-12-16T15:16:49.025Z,22.37
2018-12-16T15:19:17.628Z,20.62
2018-12-16T15:21:48.727Z,17.23
2018-12-16T15:24:17.362Z,18.82
2018-12-16T15:26:45.988Z,19.17
2018-12-16T15:29:14.576Z,25.08
2018-12-16T15:31:43.254Z,25.40
2018-12-16T15:34:11.826Z,20.45
2018-12-16T15:36:40.444Z,23.75
2018-12-16T15:39:09.105Z,36.40
2018-12-16T15:41:37.686Z,23.20
2018-12-16T15:44:06.259Z,31.00
2018-12-16T15:46:34.823Z,35.83
2018-12-16T15:49:03.498Z,30.48
2018-12-16T15:51:32.103Z,22.35
2018-12-16T15:54:00.619Z,19.37
2018-12-16T15:56:29.161Z,21.57
2018-12-16T15:58:57.697Z,21.48
2018-12-16T16:01:26.275Z,19.45
2018-12-16T16:03:55.180Z,16.95
2018-12-16T16:06:23.743Z,21.42
2018-12-16T16:08:52.363Z,25.17
2018-12-16T16:11:20.891Z,22.00
2018-12-16T16:13:49.435Z,21.95
2018-12-16T16:16:17.976Z,18.20
2018-12-16T16:18:46.524Z,18.20
2018-12-16T16:21:15.110Z,19.32
2018-12-16T16:23:43.638Z,20.35
2018-12-16T16:26:16.139Z,19.35
2018-12-16T16:28:42.735Z,20.80
2018-12-16T16:31:11.270Z,19.98
2018-12-16T16:33:39.804Z,18.23
2018-12-16T16:36:08.346Z,19.48
2018-12-16T16:38:36.893Z,19.02
2018-12-16T16:41:05.602Z,22.00
2018-12-16T16:43:34.139Z,20.20
2018-12-16T16:46:02.689Z,19.73
2018-12-16T16:48:31.222Z,19.23
2018-12-16T16:50:59.774Z,20.25
2018-12-16T16:53:28.305Z,20.57
2018-12-16T16:55:56.887Z,21.25
2018-12-16T16:58:25.446Z,21.05
2018-12-16T17:00:53.981Z,20.05
2018-12-16T17:03:22.481Z,21.30
2018-12-16T17:05:51.054Z,21.90
2018-12-16T17:08:19.576Z,20.37
2018-12-16T17:10:48.131Z,19.90
2018-12-16T17:13:16.670Z,20.02
2018-12-16T17:15:45.221Z,20.62
2018-12-16T17:18:13.752Z,21.15
2018-12-16T17:20:42.268Z,23.30
2018-12-16T17:23:10.834Z,26.00
2018-12-16T17:25:39.438Z,23.75
2018-12-16T17:28:07.991Z,22.37
2018-12-16T17:30:36.580Z,22.00
2018-12-16T17:33:05.118Z,23.30
2018-12-16T17:35:33.669Z,22.10
2018-12-16T17:38:02.211Z,23.60
2018-12-16T17:40:30.750Z,28.60
2018-12-16T17:42:59.328Z,27.95
2018-12-16T17:45:27.874Z,29.10
2018-12-16T17:47:56.414Z,33.88
2018-12-16T17:50:24.998Z,26.40
2018-12-16T17:52:53.521Z,21.80
2018-12-16T17:55:22.106Z,21.10
2018-12-16T17:57:50.638Z,23.42
2018-12-16T18:00:19.448Z,25.65
2018-12-16T18:02:48.003Z,24.45
2018-12-16T18:05:16.662Z,23.07
2018-12-16T18:07:45.204Z,26.82
2018-12-16T18:10:13.793Z,25.92
2018-12-16T18:12:42.384Z,21.85
2018-12-16T18:15:11.176Z,22.85
2018-12-16T18:17:39.727Z,24.52
2018-12-16T18:20:09.395Z,21.97
2018-12-16T18:22:37.984Z,40.67
2018-12-16T18:25:06.696Z,39.98
2018-12-16T18:27:35.270Z,27.30
2018-12-16T18:30:04.935Z,23.55
2018-12-16T18:32:33.595Z,28.67
2018-12-16T18:35:02.159Z,30.37
2018-12-16T18:37:30.850Z,22.77
2018-12-16T18:39:59.610Z,24.25
2018-12-16T18:42:28.226Z,22.45
2018-12-16T18:44:56.797Z,22.37
2018-12-16T18:47:25.357Z,20.65
2018-12-16T18:49:53.882Z,23.75
2018-12-16T18:52:22.436Z,22.75
2018-12-16T18:54:51.011Z,24.02
2018-12-16T18:57:19.553Z,20.82
2018-12-16T18:59:48.115Z,24.80
2018-12-16T19:02:16.828Z,22.73
2018-12-16T19:04:45.346Z,27.67
2018-12-16T19:07:13.938Z,25.65
2018-12-16T19:09:42.521Z,32.42
2018-12-16T19:12:11.189Z,31.50
2018-12-16T19:14:40.061Z,22.02
2018-12-16T19:17:08.596Z,30.65
2018-12-16T19:19:38.032Z,22.93
2018-12-16T19:22:06.558Z,26.80
2018-12-16T19:24:35.226Z,26.73
2018-12-16T19:27:04.432Z,22.27
2018-12-16T19:29:32.974Z,22.67
2018-12-16T19:32:01.522Z,24.23
2018-12-16T19:34:30.193Z,25.25
2018-12-16T19:36:58.736Z,21.42
2018-12-16T19:39:27.355Z,22.02
2018-12-16T19:41:55.904Z,22.48
2018-12-16T19:44:24.431Z,22.20
2018-12-16T19:46:53.022Z,23.12
2018-12-16T19:49:21.613Z,20.60
2018-12-16T19:51:50.164Z,22.80
2018-12-16T19:54:19.139Z,21.37
2018-12-16T19:56:47.721Z,21.95
2018-12-16T19:59:16.272Z,22.35
2018-12-16T20:01:44.809Z,22.37
2018-12-16T20:04:19.566Z,23.38
2018-12-16T20:06:48.464Z,24.90
2018-12-16T20:09:17.028Z,23.52
2018-12-16T20:11:45.564Z,23.47
2018-12-16T20:14:14.289Z,25.20
2018-12-16T20:16:42.826Z,22.55
2018-12-16T20:19:11.468Z,22.67
2018-12-16T20:21:40.041Z,21.62
2018-12-16T20:24:08.594Z,21.73
2018-12-16T20:26:37.134Z,21.77
2018-12-16T20:29:05.700Z,20.90
2018-12-16T20:31:34.257Z,20.45
2018-12-16T20:34:02.822Z,23.40
2018-12-16T20:36:31.386Z,19.10
2018-12-16T20:39:00.001Z,19.80
2018-12-16T20:41:28.523Z,19.30
2018-12-16T20:43:57.046Z,20.60
2018-12-16T20:46:25.591Z,21.20
2018-12-16T20:48:54.136Z,22.10
2018-12-16T20:51:22.693Z,21.50
2018-12-16T20:53:51.309Z,20.90
2018-12-16T20:56:19.820Z,23.27
2018-12-16T20:58:48.332Z,21.52
2018-12-16T21:01:16.837Z,24.10
2018-12-16T21:03:45.393Z,22.93
2018-12-16T21:06:14.076Z,24.52
2018-12-16T21:08:42.611Z,21.12
2018-12-16T21:11:16.458Z,25.92
2018-12-16T21:13:50.290Z,27.40
2018-12-16T21:16:24.045Z,25.80
2018-12-16T21:18:52.720Z,26.70
2018-12-16T21:21:21.252Z,24.12
2018-12-16T21:23:49.793Z,36.10
2018-12-16T21:26:18.298Z,22.77
2018-12-16T21:28:46.824Z,22.93
2018-12-16T21:31:15.408Z,29.45
2018-12-16T21:33:43.963Z,38.00
2018-12-16T21:36:12.502Z,32.70
2018-12-16T21:38:41.024Z,26.87
2018-12-16T21:41:09.584Z,21.20
2018-12-16T21:43:38.149Z,27.05
2018-12-16T21:46:06.700Z,23.38
2018-12-16T21:48:35.235Z,24.80
2018-12-16T21:51:03.752Z,25.50
2018-12-16T21:53:32.303Z,22.22
2018-12-16T21:56:00.862Z,25.27
2018-12-16T21:58:29.371Z,27.82
2018-12-16T22:00:57.916Z,24.00
2018-12-16T22:03:26.462Z,21.50
2018-12-16T22:05:57.362Z,21.82
2018-12-16T22:08:26.411Z,22.98
2018-12-16T22:10:54.939Z,22.20
2018-12-16T22:13:23.466Z,24.02
2018-12-16T22:15:51.975Z,22.00
2018-12-16T22:18:20.504Z,23.67
2018-12-16T22:20:49.030Z,22.50
2018-12-16T22:23:17.580Z,22.37
2018-12-16T22:25:46.130Z,22.62
2018-12-16T22:28:14.654Z,23.55
2018-12-16T22:30:43.171Z,22.98
2018-12-16T22:33:11.731Z,22.48
2018-12-16T22:35:40.316Z,24.47
2018-12-16T22:38:08.857Z,25.05
2018-12-16T22:40:37.449Z,22.80
2018-12-16T22:43:05.985Z,24.20
2018-12-16T22:45:34.509Z,23.80
2018-12-16T22:48:03.048Z,25.37
2018-12-16T22:50:31.588Z,25.40
2018-12-16T22:53:00.133Z,24.23
2018-12-16T22:55:28.642Z,22.32
2018-12-16T22:57:57.164Z,26.70
2018-12-16T23:00:26.018Z,25.10
2018-12-16T23:02:54.535Z,27.25
2018-12-16T23:05:23.049Z,22.50
2018-12-16T23:07:51.601Z,24.90
2018-12-16T23:10:20.141Z,24.50
2018-12-16T23:12:48.681Z,24.37
2018-12-16T23:15:17.235Z,25.77
2018-12-16T23:17:45.747Z,23.10
2018-12-16T23:20:19.828Z,24.57
2018-12-16T23:22:48.672Z,24.45
2018-12-16T23:25:17.428Z,25.20
2018-12-16T23:27:45.964Z,24.02
2018-12-16T23:30:14.509Z,24.57
2018-12-16T23:32:43.057Z,22.10
2018-12-16T23:35:11.627Z,23.27
2018-12-16T23:37:40.163Z,23.47
2018-12-16T23:40:09.030Z,22.85
2018-12-16T23:42:37.605Z,25.00
2018-12-16T23:45:07.616Z,23.10
2018-12-16T23:47:36.136Z,24.92
2018-12-16T23:50:06.380Z,23.52
2018-12-16T23:52:35.012Z,23.22
2018-12-16T23:55:03.666Z,25.15
2018-12-16T23:57:32.224Z,25.37
